Time;durP1;ratioP1;P1;durP2;ratioP2;P2;SDS_P1;SDS_P2;PMS_P1;PMS_P2;Temp;Humidity;BMP_temperature;BMP_pressure;BME280_temperature;BME280_humidity;BME280_pressure;Samples;Min_cycle;Max_cycle;Signal;HPM_P1;HPM_P2
2023/06/01 00:01:07;;;;;;;2.22;1.13;;;;;;;-147.53;100.00;57128.34;10062471;29;20468;-85
2023/06/01 00:06:08;;;;;;;2.15;0.93;;;;;;;-147.53;100.00;57128.34;10054329;29;20053;-85
2023/06/01 00:11:10;;;;;;;2.55;1.15;;;;;;;-147.53;100.00;57128.34;10070172;29;20572;-85
2023/06/01 00:16:12;;;;;;;3.78;2.15;;;;;;;-147.53;100.00;57128.34;10073583;29;20053;-84
2023/06/01 00:21:14;;;;;;;1.65;0.85;;;;;;;-147.53;100.00;57128.34;10072617;29;20140;-85
2023/06/01 00:26:16;;;;;;;3.92;1.65;;;;;;;-147.53;100.00;57128.34;10075166;29;20064;-86
2023/06/01 00:31:23;;;;;;;1.80;1.05;;;;;;;-147.53;100.00;57128.34;10054546;29;20086;-84
2023/06/01 00:36:25;;;;;;;1.42;1.10;;;;;;;-147.53;100.00;57128.34;10056734;29;20064;-87
2023/06/01 00:41:27;;;;;;;1.38;0.63;;;;;;;-147.53;100.00;57128.34;10056979;29;20058;-83
2023/06/01 00:46:30;;;;;;;8.70;1.08;;;;;;;-147.53;100.00;57128.34;10041731;29;20462;-84
2023/06/01 00:51:32;;;;;;;1.73;0.98;;;;;;;-147.53;100.00;57128.34;10052979;29;20068;-84
2023/06/01 00:56:36;;;;;;;1.00;0.80;;;;;;;-147.53;100.00;57128.34;10054620;29;20049;-84
2023/06/01 01:01:37;;;;;;;2.63;1.45;;;;;;;-147.53;100.00;57128.34;10053972;29;20064;-84
2023/06/01 01:06:57;;;;;;;2.15;1.02;;;;;;;-147.53;100.00;57128.34;10039290;29;20117;-84
2023/06/01 01:12:24;;;;;;;6.75;1.58;;;;;;;-147.53;100.00;57128.34;10049972;29;20066;-84
2023/06/01 01:17:42;;;;;;;1.80;0.85;;;;;;;-147.53;100.00;57128.34;10043721;29;20057;-85
2023/06/01 01:23:04;;;;;;;6.38;1.23;;;;;;;-147.53;100.00;57128.34;10031269;29;20058;-84
2023/06/01 01:28:18;;;;;;;1.45;0.90;;;;;;;-147.53;100.00;57128.34;10044289;29;20038;-84
2023/06/01 01:33:21;;;;;;;2.70;0.93;;;;;;;-147.53;100.00;57128.34;10028496;29;20057;-84
2023/06/01 01:38:23;;;;;;;2.15;1.20;;;;;;;-147.53;100.00;57128.34;10031515;29;20071;-84
2023/06/01 01:43:25;;;;;;;2.80;1.58;;;;;;;-147.53;100.00;57128.34;10045483;29;20072;-85
2023/06/01 01:48:39;;;;;;;2.67;1.30;;;;;;;-147.53;100.00;57128.34;10045369;29;20065;-84
2023/06/01 01:53:44;;;;;;;2.35;1.02;;;;;;;-147.53;100.00;57128.34;10034523;29;20049;-84
2023/06/01 01:58:47;;;;;;;2.75;1.25;;;;;;;-147.53;100.00;57128.34;10030667;29;20054;-84
2023/06/01 02:04:04;;;;;;;4.13;1.48;;;;;;;-147.53;100.00;57128.34;10030226;29;20060;-84
2023/06/01 02:09:07;;;;;;;1.23;0.90;;;;;;;-147.53;100.00;57128.34;10030245;29;20512;-84
2023/06/01 02:14:09;;;;;;;3.15;1.00;;;;;;;-147.53;100.00;57128.34;10044787;29;20054;-86
2023/06/01 02:19:15;;;;;;;2.60;0.82;;;;;;;-147.53;100.00;57128.34;10044799;29;20058;-84
2023/06/01 02:24:17;;;;;;;3.25;0.95;;;;;;;-147.53;100.00;57128.34;10029695;29;20527;-85
2023/06/01 02:29:22;;;;;;;1.30;0.98;;;;;;;-147.53;100.00;57128.34;10044703;29;20082;-84
2023/06/01 02:34:24;;;;;;;1.20;0.57;;;;;;;-147.53;100.00;57128.34;10059963;29;20082;-85
2023/06/01 02:39:26;;;;;;;4.07;1.38;;;;;;;-147.53;100.00;57128.34;10040250;29;20078;-84
2023/06/01 02:44:28;;;;;;;1.50;0.95;;;;;;;-147.53;100.00;57128.34;10043846;29;20125;-84
2023/06/01 02:49:29;;;;;;;2.13;0.98;;;;;;;-147.53;100.00;57128.34;10022309;29;20739;-85
2023/06/01 02:54:31;;;;;;;0.98;0.55;;;;;;;-147.53;100.00;57128.34;10039276;29;20567;-84
2023/06/01 02:59:38;;;;;;;2.65;0.68;;;;;;;-147.53;100.00;57128.34;10038871;29;20053;-84
2023/06/01 03:04:40;;;;;;;2.83;1.13;;;;;;;-147.53;100.00;57128.34;10039034;29;20076;-84
2023/06/01 03:09:42;;;;;;;2.20;0.80;;;;;;;-147.53;100.00;57128.34;10058542;29;20103;-85
2023/06/01 03:14:51;;;;;;;1.77;1.10;;;;;;;-147.53;100.00;57128.34;10037828;29;20140;-84
2023/06/01 03:19:52;;;;;;;1.73;0.93;;;;;;;-147.53;100.00;57128.34;10057974;29;20057;-84
2023/06/01 03:24:57;;;;;;;1.23;0.80;;;;;;;-147.53;100.00;57128.34;10040961;29;20060;-86
2023/06/01 03:30:03;;;;;;;1.85;0.73;;;;;;;-147.53;100.00;57128.34;10022364;29;20076;-82
2023/06/01 03:35:07;;;;;;;1.13;0.60;;;;;;;-147.53;100.00;57128.34;10035346;29;20062;-82
2023/06/01 03:40:12;;;;;;;3.05;1.23;;;;;;;-147.53;100.00;57128.34;10050682;29;20069;-83
2023/06/01 03:45:18;;;;;;;2.30;1.50;;;;;;;-147.53;100.00;57128.34;10033577;29;20053;-83
2023/06/01 03:50:21;;;;;;;1.17;0.93;;;;;;;-147.53;100.00;57128.34;10051818;29;20140;-83
2023/06/01 03:55:25;;;;;;;0.88;0.65;;;;;;;-147.53;100.00;57128.34;10033630;29;20057;-82
2023/06/01 04:00:37;;;;;;;3.17;1.05;;;;;;;-147.53;100.00;57128.34;10031418;29;20745;-83
2023/06/01 04:05:39;;;;;;;1.00;0.68;;;;;;;-147.53;100.00;57128.34;10022162;29;20125;-83
2023/06/01 04:10:41;;;;;;;3.13;0.98;;;;;;;-147.53;100.00;57128.34;10031661;29;20060;-82
2023/06/01 04:15:45;;;;;;;9.45;1.20;;;;;;;-147.53;100.00;57128.34;10028580;29;20051;-83
2023/06/01 04:20:48;;;;;;;1.40;0.63;;;;;;;-147.53;100.00;57128.34;10030111;29;20061;-83
2023/06/01 04:25:58;;;;;;;0.68;0.50;;;;;;;-147.53;100.00;57128.34;10031857;29;20084;-82
2023/06/01 04:31:02;;;;;;;2.42;0.55;;;;;;;-147.53;100.00;57128.34;10030006;29;20045;-83
2023/06/01 04:36:04;;;;;;;0.65;0.52;;;;;;;-147.53;100.00;57128.34;10018963;29;20053;-83
2023/06/01 04:41:09;;;;;;;2.40;1.15;;;;;;;-147.53;100.00;57128.34;10028832;29;20455;-83
2023/06/01 04:46:13;;;;;;;1.42;0.88;;;;;;;-147.53;100.00;57128.34;10004502;29;20600;-85
2023/06/01 04:51:19;;;;;;;3.00;0.98;;;;;;;-147.53;100.00;57128.34;10033034;29;20066;-83
2023/06/01 04:56:29;;;;;;;1.90;1.00;;;;;;;-147.53;100.00;57128.34;10037058;29;20056;-82
2023/06/01 05:01:31;;;;;;;0.77;0.60;;;;;;;-147.53;100.00;57128.34;10051317;29;20081;-83
2023/06/01 05:06:32;;;;;;;2.58;1.08;;;;;;;-147.53;100.00;57128.34;10051969;29;20452;-83
2023/06/01 05:11:34;;;;;;;2.60;0.82;;;;;;;-147.53;100.00;57128.34;10034128;29;20073;-83
2023/06/01 05:16:36;;;;;;;2.38;1.08;;;;;;;-147.53;100.00;57128.34;10035185;29;20409;-83
2023/06/01 05:21:40;;;;;;;2.42;1.27;;;;;;;-147.53;100.00;57128.34;10022982;29;20053;-84
2023/06/01 05:26:42;;;;;;;1.30;0.68;;;;;;;-147.53;100.00;57128.34;10034035;29;20381;-82
2023/06/01 05:31:45;;;;;;;1.08;0.50;;;;;;;-147.53;100.00;57128.34;10031657;29;20142;-83
2023/06/01 05:36:48;;;;;;;1.23;0.52;;;;;;;-147.53;100.00;57128.34;10032394;29;20049;-83
2023/06/01 05:41:50;;;;;;;1.13;0.73;;;;;;;-147.53;100.00;57128.34;10031964;29;20469;-83
2023/06/01 05:46:53;;;;;;;0.80;0.55;;;;;;;-147.53;100.00;57128.34;10033849;29;20045;-83
2023/06/01 05:51:54;;;;;;;1.08;0.47;;;;;;;-147.53;100.00;57128.34;10033302;29;20235;-83
2023/06/01 05:56:56;;;;;;;0.90;0.68;;;;;;;-147.53;100.00;57128.34;10031072;29;20041;-83
2023/06/01 06:01:58;;;;;;;1.20;0.90;;;;;;;-147.53;100.00;57128.34;10031954;29;20053;-83
2023/06/01 06:06:59;;;;;;;0.88;0.68;;;;;;;-147.53;100.00;57128.34;10049431;29;20132;-82
2023/06/01 06:12:01;;;;;;;1.65;0.65;;;;;;;-147.53;100.00;57128.34;10032780;29;20136;-83
2023/06/01 06:17:03;;;;;;;0.80;0.47;;;;;;;-147.53;100.00;57128.34;10049610;29;20086;-83
2023/06/01 06:22:05;;;;;;;0.38;0.38;;;;;;;-147.53;100.00;57128.34;10048672;29;20053;-83
2023/06/01 06:27:06;;;;;;;0.90;0.50;;;;;;;-147.53;100.00;57128.34;10049719;29;20059;-83
2023/06/01 06:32:09;;;;;;;0.25;0.20;;;;;;;-147.53;100.00;57128.34;10033720;29;20545;-83
2023/06/01 06:37:11;;;;;;;2.05;0.60;;;;;;;-147.53;100.00;57128.34;10050565;29;20060;-82
2023/06/01 06:42:12;;;;;;;0.35;0.35;;;;;;;-147.53;100.00;57128.34;10032317;29;20053;-83
2023/06/01 06:47:18;;;;;;;0.85;0.40;;;;;;;-147.53;100.00;57128.34;10016759;29;20599;-83
2023/06/01 06:52:19;;;;;;;0.50;0.30;;;;;;;-147.53;100.00;57128.34;10033310;29;20516;-84
2023/06/01 06:57:21;;;;;;;0.38;0.20;;;;;;;-147.53;100.00;57128.34;10048961;29;20140;-84
2023/06/01 07:02:23;;;;;;;0.32;0.32;;;;;;;-147.53;100.00;57128.34;10032925;29;20593;-83
2023/06/01 07:07:25;;;;;;;0.68;0.38;;;;;;;-147.53;100.00;57128.34;10034658;29;20817;-82
2023/06/01 07:12:26;;;;;;;2.03;0.35;;;;;;;-147.53;100.00;57128.34;10033253;29;20057;-84
2023/06/01 07:17:28;;;;;;;1.33;0.35;;;;;;;-147.53;100.00;57128.34;10036294;29;20081;-83
2023/06/01 07:22:29;;;;;;;0.50;0.30;;;;;;;-147.53;100.00;57128.34;10048455;29;20514;-84
2023/06/01 07:27:34;;;;;;;5.38;0.68;;;;;;;-147.53;100.00;57128.34;10026831;29;20516;-83
2023/06/01 07:32:36;;;;;;;0.40;0.40;;;;;;;-147.53;100.00;57128.34;10019082;29;20090;-83
2023/06/01 07:37:40;;;;;;;0.40;0.40;;;;;;;-147.53;100.00;57128.34;10037181;29;20074;-82
2023/06/01 07:42:42;;;;;;;0.85;0.52;;;;;;;-147.53;100.00;57128.34;10054575;29;20052;-83
2023/06/01 07:47:43;;;;;;;1.23;0.43;;;;;;;-147.53;100.00;57128.34;10055117;29;20098;-83
2023/06/01 07:52:45;;;;;;;0.82;0.47;;;;;;;-147.53;100.00;57128.34;10038464;29;20069;-82
2023/06/01 07:57:46;;;;;;;0.40;0.40;;;;;;;-147.53;100.00;57128.34;10030969;29;20057;-82
2023/06/01 08:02:48;;;;;;;0.32;0.32;;;;;;;-147.53;100.00;57128.34;10054559;29;20045;-83
2023/06/01 08:07:50;;;;;;;1.50;0.65;;;;;;;-147.53;100.00;57128.34;10026096;29;20538;-83
2023/06/01 08:12:55;;;;;;;0.20;0.20;;;;;;;-147.53;100.00;57128.34;10037770;29;20073;-82
2023/06/01 08:17:57;;;;;;;2.25;0.88;;;;;;;-147.53;100.00;57128.34;10053067;29;20092;-83
2023/06/01 08:22:59;;;;;;;1.10;0.40;;;;;;;-147.53;100.00;57128.34;10060072;29;20086;-83
2023/06/01 08:28:02;;;;;;;1.58;0.70;;;;;;;-147.53;100.00;57128.34;10047669;29;20544;-82
2023/06/01 08:33:04;;;;;;;2.00;0.63;;;;;;;-147.53;100.00;57128.34;10064822;29;20177;-83
2023/06/01 08:38:06;;;;;;;1.20;0.70;;;;;;;-147.53;100.00;57128.34;10046053;29;20135;-82
2023/06/01 08:43:15;;;;;;;1.27;0.70;;;;;;;-147.53;100.00;57128.34;10047030;29;20136;-82
2023/06/01 08:48:18;;;;;;;0.88;0.68;;;;;;;-147.53;100.00;57128.34;10047258;29;20352;-82
2023/06/01 08:53:22;;;;;;;1.13;0.55;;;;;;;-147.53;100.00;57128.34;10061957;29;20065;-82
2023/06/01 08:58:25;;;;;;;1.33;0.65;;;;;;;-147.53;100.00;57128.34;10061439;29;20049;-82
2023/06/01 09:03:26;;;;;;;3.30;0.88;;;;;;;-147.53;100.00;57128.34;10058891;29;20061;-83
2023/06/01 09:08:28;;;;;;;1.38;0.40;;;;;;;-147.53;100.00;57128.34;10060493;29;20057;-82
2023/06/01 09:13:32;;;;;;;1.02;0.68;;;;;;;-147.53;100.00;57128.34;10043270;29;20524;-83
2023/06/01 09:18:34;;;;;;;4.32;1.13;;;;;;;-147.53;100.00;57128.34;10060202;29;20054;-83
2023/06/01 09:23:37;;;;;;;1.85;0.70;;;;;;;-147.53;100.00;57128.34;10045321;29;20700;-83
2023/06/01 09:28:52;;;;;;;1.35;0.50;;;;;;;-147.53;100.00;57128.34;10023717;29;20082;-83
2023/06/01 09:34:03;;;;;;;6.25;0.80;;;;;;;-147.53;100.00;57128.34;10058335;29;20484;-82
2023/06/01 09:39:11;;;;;;;0.98;0.40;;;;;;;-147.53;100.00;57128.34;10042045;29;20133;-82
2023/06/01 09:44:15;;;;;;;1.08;0.68;;;;;;;-147.53;100.00;57128.34;10043724;29;20057;-82
2023/06/01 09:49:21;;;;;;;1.02;0.60;;;;;;;-147.53;100.00;57128.34;10059823;29;20157;-82
2023/06/01 09:54:27;;;;;;;1.33;0.63;;;;;;;-147.53;100.00;57128.34;10058819;29;20073;-82
2023/06/01 09:59:36;;;;;;;0.82;0.52;;;;;;;-147.53;100.00;57128.34;10057090;29;20171;-82
2023/06/01 10:04:40;;;;;;;10.17;0.93;;;;;;;-147.53;100.00;57128.34;10060697;29;20084;-83
2023/06/01 10:09:46;;;;;;;3.63;0.60;;;;;;;-147.53;100.00;57128.34;10058601;29;20061;-83
2023/06/01 10:14:49;;;;;;;2.85;0.77;;;;;;;-147.53;100.00;57128.34;10060055;29;20149;-83
2023/06/01 10:19:51;;;;;;;4.25;0.77;;;;;;;-147.53;100.00;57128.34;10056308;29;20118;-82
2023/06/01 10:25:00;;;;;;;1.55;0.70;;;;;;;-147.53;100.00;57128.34;10063717;29;20060;-82
2023/06/01 10:30:02;;;;;;;0.90;0.40;;;;;;;-147.53;100.00;57128.34;10034052;29;20062;-82
2023/06/01 10:35:05;;;;;;;1.90;0.68;;;;;;;-147.53;100.00;57128.34;10057883;29;20060;-83
2023/06/01 10:40:20;;;;;;;2.58;0.50;;;;;;;-147.53;100.00;57128.34;10039447;29;20400;-82
2023/06/01 10:45:38;;;;;;;5.95;0.90;;;;;;;-147.53;100.00;57128.34;10050015;29;20063;-82
2023/06/01 10:50:41;;;;;;;3.28;0.82;;;;;;;-147.53;100.00;57128.34;10054565;29;20057;-83
2023/06/01 10:55:43;;;;;;;1.52;0.88;;;;;;;-147.53;100.00;57128.34;10057466;29;20326;-81
2023/06/01 11:00:48;;;;;;;0.60;0.60;;;;;;;-147.53;100.00;57128.34;10036972;29;20148;-82
2023/06/01 11:05:54;;;;;;;1.30;0.82;;;;;;;-147.53;100.00;57128.34;10051597;29;20065;-83
2023/06/01 11:11:06;;;;;;;1.80;0.90;;;;;;;-147.53;100.00;57128.34;10051137;29;20686;-83
2023/06/01 11:16:09;;;;;;;1.27;0.70;;;;;;;-147.53;100.00;57128.34;10035224;29;20122;-83
2023/06/01 11:21:24;;;;;;;2.05;0.80;;;;;;;-147.53;100.00;57128.34;10034906;29;20057;-83
2023/06/01 11:26:43;;;;;;;1.30;0.88;;;;;;;-147.53;100.00;57128.34;10040105;29;20538;-82
2023/06/01 11:31:53;;;;;;;5.63;0.80;;;;;;;-147.53;100.00;57128.34;10053710;29;20152;-84
2023/06/01 11:36:56;;;;;;;2.80;0.60;;;;;;;-147.53;100.00;57128.34;10054756;29;20090;-82
2023/06/01 11:42:16;;;;;;;8.52;1.20;;;;;;;-147.53;100.00;57128.34;10049758;29;20642;-82
2023/06/01 11:47:18;;;;;;;4.90;1.25;;;;;;;-147.53;100.00;57128.34;10042729;29;20102;-83
2023/06/01 11:52:20;;;;;;;4.57;1.50;;;;;;;-147.53;100.00;57128.34;10059869;29;20068;-83
2023/06/01 11:57:22;;;;;;;2.40;1.27;;;;;;;-147.53;100.00;57128.34;10059047;29;20049;-83
2023/06/01 12:02:29;;;;;;;3.85;0.77;;;;;;;-147.53;100.00;57128.34;10055007;29;20057;-83
2023/06/01 12:07:31;;;;;;;2.92;0.93;;;;;;;-147.53;100.00;57128.34;10058053;29;20050;-83
2023/06/01 12:12:33;;;;;;;1.65;0.82;;;;;;;-147.53;100.00;57128.34;10044421;29;20495;-82
2023/06/01 12:17:54;;;;;;;1.33;0.70;;;;;;;-147.53;100.00;57128.34;10056202;29;20058;-83
2023/06/01 12:23:03;;;;;;;3.22;1.25;;;;;;;-147.53;100.00;57128.34;10058204;29;20427;-82
2023/06/01 12:28:09;;;;;;;4.10;1.00;;;;;;;-147.53;100.00;57128.34;10063611;29;20060;-83
2023/06/01 12:33:32;;;;;;;2.58;0.85;;;;;;;-147.53;100.00;57128.34;10056300;29;20516;-82
2023/06/01 12:38:37;;;;;;;2.47;1.02;;;;;;;-147.53;100.00;57128.34;10058139;29;20080;-83
2023/06/01 12:43:39;;;;;;;1.35;0.80;;;;;;;-147.53;100.00;57128.34;10057668;29;20057;-84
2023/06/01 12:48:40;;;;;;;4.20;1.08;;;;;;;-147.53;100.00;57128.34;10057239;29;20049;-83
2023/06/01 12:53:42;;;;;;;4.60;0.93;;;;;;;-147.53;100.00;57128.34;10061613;29;20104;-84
2023/06/01 12:58:44;;;;;;;0.95;0.85;;;;;;;-147.53;100.00;57128.34;10039967;29;20081;-83
2023/06/01 13:03:45;;;;;;;4.15;1.55;;;;;;;-147.53;100.00;57128.34;10051712;29;20545;-84
2023/06/01 13:08:47;;;;;;;1.40;0.95;;;;;;;-147.53;100.00;57128.34;10057005;29;20511;-82
2023/06/01 13:13:49;;;;;;;6.10;0.98;;;;;;;-147.53;100.00;57128.34;10064753;29;20065;-83
2023/06/01 13:18:51;;;;;;;4.47;1.20;;;;;;;-147.53;100.00;57128.34;10058570;29;20045;-82
2023/06/01 13:23:52;;;;;;;3.97;1.42;;;;;;;-147.53;100.00;57128.34;10025505;29;20054;-82
2023/06/01 13:28:54;;;;;;;4.20;0.98;;;;;;;-147.53;100.00;57128.34;10038515;29;20459;-83
2023/06/01 13:33:56;;;;;;;4.20;1.42;;;;;;;-147.53;100.00;57128.34;10056169;29;20089;-83
2023/06/01 13:39:04;;;;;;;2.65;1.00;;;;;;;-147.53;100.00;57128.34;10033196;29;20041;-83
2023/06/01 13:44:06;;;;;;;6.75;1.52;;;;;;;-147.53;100.00;57128.34;10037730;29;20054;-83
2023/06/01 13:49:07;;;;;;;4.47;0.88;;;;;;;-147.53;100.00;57128.34;10053681;29;20427;-83
2023/06/01 13:54:10;;;;;;;1.85;0.73;;;;;;;-147.53;100.00;57128.34;10038038;29;20060;-83
2023/06/01 13:59:11;;;;;;;2.30;0.80;;;;;;;-147.53;100.00;57128.34;10039880;29;20575;-83
2023/06/01 14:04:13;;;;;;;5.03;1.20;;;;;;;-147.53;100.00;57128.34;10052935;29;20065;-83
2023/06/01 14:09:18;;;;;;;2.50;1.00;;;;;;;-147.53;100.00;57128.34;10054118;29;20049;-83
2023/06/01 14:14:20;;;;;;;1.52;0.77;;;;;;;-147.53;100.00;57128.34;10053444;29;20144;-84
2023/06/01 14:19:22;;;;;;;1.13;0.90;;;;;;;-147.53;100.00;57128.34;10035986;29;20077;-83
2023/06/01 14:24:23;;;;;;;2.40;0.80;;;;;;;-147.53;100.00;57128.34;10054097;29;20069;-83
2023/06/01 14:29:25;;;;;;;2.70;0.80;;;;;;;-147.53;100.00;57128.34;10050815;29;20450;-83
2023/06/01 14:34:27;;;;;;;1.25;0.82;;;;;;;-147.53;100.00;57128.34;10017064;29;20073;-84
2023/06/01 14:39:29;;;;;;;3.13;1.17;;;;;;;-147.53;100.00;57128.34;10053542;29;20513;-84
2023/06/01 14:44:30;;;;;;;1.45;0.70;;;;;;;-147.53;100.00;57128.34;10054689;29;20081;-83
2023/06/01 14:49:32;;;;;;;4.28;0.85;;;;;;;-147.53;100.00;57128.34;10034633;29;20164;-83
2023/06/01 14:54:48;;;;;;;2.95;1.00;;;;;;;-147.53;100.00;57128.34;10050566;29;20053;-84
2023/06/01 14:59:50;;;;;;;0.30;0.30;;;;;;;-147.53;100.00;57128.34;10032476;29;20076;-84
2023/06/01 15:05:05;;;;;;;1.88;0.75;;;;;;;-147.53;100.00;57128.34;10027136;29;20552;-82
2023/06/01 15:10:07;;;;;;;1.20;0.60;;;;;;;-147.53;100.00;57128.34;10048565;29;20058;-83
2023/06/01 15:15:09;;;;;;;1.02;0.55;;;;;;;-147.53;100.00;57128.34;10013361;29;20053;-83
2023/06/01 15:20:14;;;;;;;1.63;0.90;;;;;;;-147.53;100.00;57128.34;10001310;29;20551;-84
2023/06/01 15:25:15;;;;;;;2.97;0.90;;;;;;;-147.53;100.00;57128.34;10016239;29;20073;-83
2023/06/01 15:30:17;;;;;;;3.47;1.23;;;;;;;-147.53;100.00;57128.34;10028716;29;20163;-83
2023/06/01 15:35:20;;;;;;;1.17;0.65;;;;;;;-147.53;100.00;57128.34;10034097;29;20067;-82
2023/06/01 15:40:21;;;;;;;2.00;1.02;;;;;;;-147.53;100.00;57128.34;10027316;29;20049;-83
2023/06/01 15:45:23;;;;;;;1.35;0.73;;;;;;;-147.53;100.00;57128.34;10028063;29;20641;-84
2023/06/01 15:50:25;;;;;;;1.92;0.82;;;;;;;-147.53;100.00;57128.34;10028427;29;20106;-83
2023/06/01 15:55:26;;;;;;;1.10;0.60;;;;;;;-147.53;100.00;57128.34;10031287;29;20053;-83
2023/06/01 16:00:28;;;;;;;1.95;0.63;;;;;;;-147.53;100.00;57128.34;10025432;29;20061;-83
2023/06/01 16:05:30;;;;;;;4.47;0.93;;;;;;;-147.53;100.00;57128.34;10034823;29;20077;-82
2023/06/01 16:10:31;;;;;;;3.72;0.80;;;;;;;-147.53;100.00;57128.34;10014064;29;20080;-82
2023/06/01 16:15:33;;;;;;;0.50;0.50;;;;;;;-147.53;100.00;57128.34;10035999;29;21211;-82
2023/06/01 16:20:35;;;;;;;1.10;0.65;;;;;;;-147.53;100.00;57128.34;10034215;29;20070;-82
2023/06/01 16:25:36;;;;;;;0.85;0.70;;;;;;;-147.53;100.00;57128.34;10031283;29;20050;-82
2023/06/01 16:30:38;;;;;;;0.85;0.43;;;;;;;-147.53;100.00;57128.34;10028660;29;20069;-82
2023/06/01 16:35:39;;;;;;;2.47;0.57;;;;;;;-147.53;100.00;57128.34;10043949;29;20061;-84
2023/06/01 16:40:41;;;;;;;0.98;0.30;;;;;;;-147.53;100.00;57128.34;10036150;29;20057;-83
2023/06/01 16:45:42;;;;;;;0.30;0.30;;;;;;;-147.53;100.00;57128.34;10032659;29;20062;-83
2023/06/01 16:50:46;;;;;;;1.73;0.90;;;;;;;-147.53;100.00;57128.34;10049249;29;20073;-84
2023/06/01 16:55:47;;;;;;;1.80;0.60;;;;;;;-147.53;100.00;57128.34;10055384;29;20054;-83
2023/06/01 17:00:49;;;;;;;1.88;0.60;;;;;;;-147.53;100.00;57128.34;10048596;29;20050;-83
2023/06/01 17:05:51;;;;;;;1.45;0.70;;;;;;;-147.53;100.00;57128.34;10060226;29;20061;-83
2023/06/01 17:10:52;;;;;;;3.33;0.75;;;;;;;-147.53;100.00;57128.34;10059485;29;20420;-83
2023/06/01 17:15:54;;;;;;;0.77;0.60;;;;;;;-147.53;100.00;57128.34;10046835;29;20909;-84
2023/06/01 17:20:56;;;;;;;2.80;0.75;;;;;;;-147.53;100.00;57128.34;10064559;29;20049;-83
2023/06/01 17:25:59;;;;;;;1.83;0.70;;;;;;;-147.53;100.00;57128.34;10046214;29;20058;-82
2023/06/01 17:31:01;;;;;;;1.77;0.60;;;;;;;-147.53;100.00;57128.34;10057396;29;20064;-82
2023/06/01 17:36:03;;;;;;;3.45;1.25;;;;;;;-147.53;100.00;57128.34;10057053;29;20614;-82
2023/06/01 17:41:06;;;;;;;3.05;0.88;;;;;;;-147.53;100.00;57128.34;10050540;29;20412;-82
2023/06/01 17:46:08;;;;;;;4.22;1.35;;;;;;;-147.53;100.00;57128.34;10057328;29;20116;-83
2023/06/01 17:51:09;;;;;;;4.50;0.80;;;;;;;-147.53;100.00;57128.34;10057570;29;20057;-82
2023/06/01 17:56:12;;;;;;;0.65;0.60;;;;;;;-147.53;100.00;57128.34;10055008;29;20066;-84
2023/06/01 18:01:13;;;;;;;1.05;0.52;;;;;;;-147.53;100.00;57128.34;10054105;29;20058;-80
2023/06/01 18:06:16;;;;;;;8.07;0.98;;;;;;;-147.53;100.00;57128.34;10028450;29;20129;-83
2023/06/01 18:11:18;;;;;;;8.90;1.17;;;;;;;-147.53;100.00;57128.34;10030700;29;20064;-81
2023/06/01 18:16:20;;;;;;;1.73;0.90;;;;;;;-147.53;100.00;57128.34;10037151;29;20076;-79
2023/06/01 18:21:21;;;;;;;3.97;1.67;;;;;;;-147.53;100.00;57128.34;10033692;29;20090;-80
2023/06/01 18:26:23;;;;;;;2.13;0.60;;;;;;;-147.53;100.00;57128.34;10049562;29;20057;-80
2023/06/01 18:31:24;;;;;;;7.55;0.70;;;;;;;-147.53;100.00;57128.34;10038257;29;20140;-81
2023/06/01 18:36:28;;;;;;;2.42;1.23;;;;;;;-147.53;100.00;57128.34;10036127;29;20061;-81
2023/06/01 18:41:30;;;;;;;0.98;0.52;;;;;;;-147.53;100.00;57128.34;10053367;29;20049;-81
2023/06/01 18:46:33;;;;;;;4.07;0.75;;;;;;;-147.53;100.00;57128.34;10056944;29;20424;-79
2023/06/01 18:51:35;;;;;;;1.95;0.47;;;;;;;-147.53;100.00;57128.34;10054730;29;20078;-79
2023/06/01 18:56:37;;;;;;;3.28;0.73;;;;;;;-147.53;100.00;57128.34;10048994;29;20503;-80
2023/06/01 19:01:38;;;;;;;7.75;1.48;;;;;;;-147.53;100.00;57128.34;10046114;29;20074;-81
2023/06/01 19:06:45;;;;;;;2.40;1.02;;;;;;;-147.53;100.00;57128.34;10034873;29;20427;-80
2023/06/01 19:11:47;;;;;;;5.28;1.27;;;;;;;-147.53;100.00;57128.34;10036668;29;20111;-80
2023/06/01 19:16:49;;;;;;;1.95;0.68;;;;;;;-147.53;100.00;57128.34;10023777;29;20049;-80
2023/06/01 19:21:51;;;;;;;1.05;0.40;;;;;;;-147.53;100.00;57128.34;10054422;29;20524;-80
2023/06/01 19:26:55;;;;;;;6.28;0.85;;;;;;;-147.53;100.00;57128.34;10053643;29;20114;-80
2023/06/01 19:31:57;;;;;;;1.08;0.63;;;;;;;-147.53;100.00;57128.34;10055676;29;20053;-81
2023/06/01 19:37:01;;;;;;;6.43;1.10;;;;;;;-147.53;100.00;57128.34;10056394;29;20046;-81
2023/06/01 19:42:18;;;;;;;0.80;0.40;;;;;;;-147.53;100.00;57128.34;10051772;29;20690;-82
2023/06/01 19:47:38;;;;;;;3.35;1.02;;;;;;;-147.53;100.00;57128.34;10053796;29;20061;-81
2023/06/01 19:52:41;;;;;;;8.57;0.88;;;;;;;-147.53;100.00;57128.34;10042646;29;20060;-80
2023/06/01 19:57:43;;;;;;;3.67;1.27;;;;;;;-147.53;100.00;57128.34;10033685;29;20548;-81
2023/06/01 20:02:49;;;;;;;0.73;0.52;;;;;;;-147.53;100.00;57128.34;10023732;29;20064;-80
2023/06/01 20:07:57;;;;;;;3.38;0.82;;;;;;;-147.53;100.00;57128.34;10045675;29;20046;-80
2023/06/01 20:13:05;;;;;;;3.95;0.55;;;;;;;-147.53;100.00;57128.34;10049383;29;20054;-81
2023/06/01 20:18:09;;;;;;;2.90;0.73;;;;;;;-147.53;100.00;57128.34;10037002;29;20064;-80
2023/06/01 20:23:15;;;;;;;2.20;0.52;;;;;;;-147.53;100.00;57128.34;10052212;29;20140;-81
2023/06/01 20:28:45;;;;;;;2.45;0.55;;;;;;;-147.53;100.00;57128.34;10046067;29;20316;-82
2023/06/01 20:33:48;;;;;;;0.40;0.40;;;;;;;-147.53;100.00;57128.34;10058687;29;20156;-81
2023/06/01 20:38:50;;;;;;;2.05;0.82;;;;;;;-147.53;100.00;57128.34;10054565;29;20057;-81
2023/06/01 20:43:52;;;;;;;0.90;0.57;;;;;;;-147.53;100.00;57128.34;10057754;29;20140;-80
2023/06/01 20:49:01;;;;;;;1.75;0.40;;;;;;;-147.53;100.00;57128.34;10062808;29;20049;-80
2023/06/01 20:54:06;;;;;;;9.63;0.85;;;;;;;-147.53;100.00;57128.34;10061052;29;20050;-80
2023/06/01 20:59:12;;;;;;;1.42;0.57;;;;;;;-147.53;100.00;57128.34;10052466;29;20060;-81
2023/06/01 21:04:16;;;;;;;2.05;0.90;;;;;;;-147.53;100.00;57128.34;10055471;29;20084;-80
2023/06/01 21:09:21;;;;;;;3.92;0.73;;;;;;;-147.53;100.00;57128.34;10051096;29;20815;-81
2023/06/01 21:14:23;;;;;;;5.50;0.47;;;;;;;-147.53;100.00;57128.34;10042138;29;20136;-81
2023/06/01 21:19:25;;;;;;;0.85;0.52;;;;;;;-147.53;100.00;57128.34;10041129;29;20547;-80
2023/06/01 21:24:26;;;;;;;1.55;0.65;;;;;;;-147.53;100.00;57128.34;10060082;29;20049;-79
2023/06/01 21:29:28;;;;;;;1.15;0.77;;;;;;;-147.53;100.00;57128.34;10058588;29;20065;-81
2023/06/01 21:34:29;;;;;;;0.82;0.55;;;;;;;-147.53;100.00;57128.34;10058749;29;20057;-80
2023/06/01 21:39:31;;;;;;;4.50;0.90;;;;;;;-147.53;100.00;57128.34;10059556;29;20045;-81
2023/06/01 21:44:33;;;;;;;2.17;0.73;;;;;;;-147.53;100.00;57128.34;10060792;29;20515;-80
2023/06/01 21:49:34;;;;;;;4.65;1.05;;;;;;;-147.53;100.00;57128.34;10043541;29;20049;-80
2023/06/01 21:54:36;;;;;;;1.33;0.57;;;;;;;-147.53;100.00;57128.34;10045636;29;20082;-81
2023/06/01 21:59:37;;;;;;;5.72;1.08;;;;;;;-147.53;100.00;57128.34;10061684;29;20041;-82
2023/06/01 22:04:39;;;;;;;3.17;1.48;;;;;;;-147.53;100.00;57128.34;10060656;29;20784;-81
2023/06/01 22:09:41;;;;;;;3.10;1.08;;;;;;;-147.53;100.00;57128.34;10045337;29;20053;-81
2023/06/01 22:14:44;;;;;;;1.80;0.55;;;;;;;-147.53;100.00;57128.34;10061411;29;20580;-80
2023/06/01 22:19:45;;;;;;;1.23;0.63;;;;;;;-147.53;100.00;57128.34;10059469;29;20057;-80
2023/06/01 22:24:48;;;;;;;1.98;0.63;;;;;;;-147.53;100.00;57128.34;10062797;29;20050;-81
2023/06/01 22:29:49;;;;;;;1.75;1.13;;;;;;;-147.53;100.00;57128.34;10064633;29;20050;-80
2023/06/01 22:34:51;;;;;;;1.23;0.80;;;;;;;-147.53;100.00;57128.34;10065662;29;20046;-81
2023/06/01 22:39:53;;;;;;;1.05;0.68;;;;;;;-147.53;100.00;57128.34;10065679;29;20053;-80
2023/06/01 22:44:55;;;;;;;1.50;1.10;;;;;;;-147.53;100.00;57128.34;10047225;29;20053;-81